createdAt,value
2023-05-09T00:00:14.648Z,45.81
2023-05-09T00:01:14.676Z,45.80
2023-05-09T00:02:14.790Z,45.79
2023-05-09T00:03:14.699Z,45.78
2023-05-09T00:04:14.674Z,45.81
2023-05-09T00:05:14.844Z,45.77
2023-05-09T00:06:14.699Z,45.79
2023-05-09T00:07:14.683Z,45.81
2023-05-09T00:08:14.691Z,45.79
2023-05-09T00:09:14.671Z,45.78
2023-05-09T00:10:14.699Z,45.80
2023-05-09T00:11:14.683Z,45.75
2023-05-09T00:12:14.680Z,45.79
2023-05-09T00:13:14.746Z,45.78
2023-05-09T00:14:14.680Z,45.79
2023-05-09T00:15:15.170Z,45.80
2023-05-09T00:16:14.729Z,45.77
2023-05-09T00:17:14.671Z,45.75
2023-05-09T00:18:14.677Z,45.75
2023-05-09T00:19:14.679Z,45.77
2023-05-09T00:20:14.716Z,45.78
2023-05-09T00:21:14.676Z,45.77
2023-05-09T00:22:14.694Z,45.79
2023-05-09T00:23:14.709Z,45.77
2023-05-09T00:24:14.706Z,45.78
2023-05-09T00:25:15.009Z,45.78
2023-05-09T00:26:14.688Z,45.74
2023-05-09T00:27:14.744Z,45.79
2023-05-09T00:28:14.725Z,45.79
2023-05-09T00:29:14.750Z,45.77
2023-05-09T00:30:14.742Z,45.79
2023-05-09T00:31:15.491Z,45.79
2023-05-09T00:32:14.824Z,45.77
2023-05-09T00:33:14.810Z,45.77
2023-05-09T00:34:14.779Z,45.77
2023-05-09T00:35:14.980Z,45.77
2023-05-09T00:36:14.813Z,45.73
2023-05-09T00:37:14.841Z,45.78
2023-05-09T00:38:14.794Z,45.73
2023-05-09T00:39:14.808Z,45.76
2023-05-09T00:40:14.812Z,45.75
2023-05-09T00:41:14.817Z,45.73
2023-05-09T00:42:14.834Z,45.72
2023-05-09T00:43:14.815Z,45.73
2023-05-09T00:44:14.804Z,45.74
2023-05-09T00:45:15.046Z,45.72
2023-05-09T00:46:14.885Z,45.75
2023-05-09T00:47:14.983Z,45.71
2023-05-09T00:48:14.889Z,45.73
2023-05-09T00:49:14.904Z,45.74
2023-05-09T00:50:14.926Z,45.73
2023-05-09T00:51:14.937Z,45.73
2023-05-09T00:52:14.955Z,45.71
2023-05-09T00:53:14.971Z,45.74
2023-05-09T00:54:14.992Z,45.75
2023-05-09T00:55:15.209Z,45.72
2023-05-09T00:56:14.939Z,45.73
2023-05-09T00:57:15.025Z,45.70
2023-05-09T00:58:14.941Z,45.72
2023-05-09T00:59:16.908Z,45.74
2023-05-09T01:00:15.078Z,45.72
2023-05-09T01:01:15.039Z,45.71
2023-05-09T01:02:15.088Z,45.71
2023-05-09T01:03:15.198Z,45.72
2023-05-09T01:04:15.056Z,45.73
2023-05-09T01:05:15.281Z,45.72
2023-05-09T01:06:15.052Z,45.70
2023-05-09T01:07:15.031Z,45.69
2023-05-09T01:08:15.029Z,45.71
2023-05-09T01:09:15.037Z,45.71
2023-05-09T01:10:15.034Z,45.71
2023-05-09T01:11:15.056Z,45.71
2023-05-09T01:12:15.067Z,45.71
2023-05-09T01:13:15.127Z,45.70
2023-05-09T01:14:15.088Z,45.69
2023-05-09T01:15:15.259Z,45.69
2023-05-09T01:16:15.157Z,45.70
2023-05-09T01:17:15.099Z,45.69
2023-05-09T01:18:15.164Z,45.67
2023-05-09T01:19:15.209Z,45.68
2023-05-09T01:20:15.135Z,45.70
2023-05-09T01:21:15.153Z,45.69
2023-05-09T01:22:15.936Z,45.71
2023-05-09T01:23:15.176Z,45.69
2023-05-09T01:24:15.163Z,45.71
2023-05-09T01:25:15.441Z,45.67
2023-05-09T01:26:15.166Z,45.69
2023-05-09T01:27:15.153Z,45.70
2023-05-09T01:28:15.171Z,45.71
2023-05-09T01:29:15.179Z,45.66
2023-05-09T01:30:15.236Z,45.68
2023-05-09T01:31:15.229Z,45.66
2023-05-09T01:32:15.185Z,45.65
2023-05-09T01:33:15.950Z,45.67
2023-05-09T01:34:15.223Z,45.67
2023-05-09T01:35:15.626Z,45.68
2023-05-09T01:36:15.249Z,45.68
2023-05-09T01:37:15.230Z,45.67
2023-05-09T01:38:15.219Z,45.68
2023-05-09T01:39:15.222Z,45.66
2023-05-09T01:40:15.261Z,45.67
2023-05-09T01:41:15.246Z,45.65
2023-05-09T01:42:15.253Z,45.66
2023-05-09T01:43:15.296Z,45.67
2023-05-09T01:44:15.312Z,45.68
2023-05-09T01:45:15.707Z,45.66
2023-05-09T01:46:15.312Z,45.69
2023-05-09T01:47:15.308Z,45.65
2023-05-09T01:48:15.304Z,45.67
2023-05-09T01:49:15.305Z,45.68
2023-05-09T01:50:15.328Z,45.66
2023-05-09T01:51:15.399Z,45.65
2023-05-09T01:52:15.350Z,45.67
2023-05-09T01:53:15.451Z,45.65
2023-05-09T01:54:15.352Z,45.64
2023-05-09T01:55:15.507Z,45.67
2023-05-09T01:56:15.346Z,45.64
2023-05-09T01:57:15.370Z,45.66
2023-05-09T01:58:15.392Z,45.66
2023-05-09T01:59:15.419Z,45.64
2023-05-09T02:00:15.394Z,45.65
2023-05-09T02:01:15.541Z,45.65
2023-05-09T02:02:15.433Z,45.67
2023-05-09T02:03:15.463Z,45.65
2023-05-09T02:04:15.430Z,45.67
2023-05-09T02:05:15.731Z,45.66
2023-05-09T02:06:15.427Z,45.67
2023-05-09T02:07:15.556Z,45.66
2023-05-09T02:08:15.442Z,45.63
2023-05-09T02:09:15.448Z,45.62
2023-05-09T02:10:15.515Z,45.62
2023-05-09T02:11:15.477Z,45.62
2023-05-09T02:12:15.479Z,45.64
2023-05-09T02:13:15.554Z,45.64
2023-05-09T02:14:15.490Z,45.63
2023-05-09T02:15:15.974Z,45.65
2023-05-09T02:16:15.532Z,45.62
2023-05-09T02:17:15.518Z,45.64
2023-05-09T02:18:15.510Z,45.63
2023-05-09T02:19:15.554Z,45.62
2023-05-09T02:20:15.550Z,45.65
2023-05-09T02:21:15.606Z,45.64
2023-05-09T02:22:15.593Z,45.64
2023-05-09T02:23:15.697Z,45.62
2023-05-09T02:24:15.607Z,45.62
2023-05-09T02:25:16.090Z,45.61
2023-05-09T02:26:15.579Z,45.63
2023-05-09T02:27:15.605Z,45.62
2023-05-09T02:28:15.632Z,45.63
2023-05-09T02:29:15.597Z,45.63
2023-05-09T02:30:15.605Z,45.63
2023-05-09T02:31:15.612Z,45.62
2023-05-09T02:32:15.766Z,45.65
2023-05-09T02:33:15.655Z,45.65
2023-05-09T02:34:15.640Z,45.61
2023-05-09T02:35:15.938Z,45.62
2023-05-09T02:36:15.655Z,45.64
2023-05-09T02:37:15.645Z,45.63
2023-05-09T02:38:15.709Z,45.62
2023-05-09T02:39:15.751Z,45.63
2023-05-09T02:40:15.669Z,45.62
2023-05-09T02:41:15.706Z,45.61
2023-05-09T02:42:15.691Z,45.58
2023-05-09T02:43:15.716Z,45.61
2023-05-09T02:44:15.725Z,45.63
2023-05-09T02:45:15.914Z,45.62
2023-05-09T02:46:15.794Z,45.60
2023-05-09T02:47:15.735Z,45.59
2023-05-09T02:48:15.755Z,45.57
2023-05-09T02:49:30.937Z,45.62
2023-05-09T02:50:16.773Z,45.60
2023-05-09T02:51:15.744Z,45.61
2023-05-09T02:52:15.747Z,45.60
2023-05-09T02:53:15.765Z,45.58
2023-05-09T02:54:15.727Z,45.57
2023-05-09T02:55:16.252Z,45.57
2023-05-09T02:56:15.709Z,45.57
2023-05-09T02:57:15.693Z,45.57
2023-05-09T02:58:15.750Z,45.61
2023-05-09T02:59:15.687Z,45.57
2023-05-09T03:00:15.683Z,45.57
2023-05-09T03:01:15.723Z,45.59
2023-05-09T03:02:15.669Z,45.60
2023-05-09T03:03:15.798Z,45.57
2023-05-09T03:04:15.670Z,45.58
2023-05-09T03:05:15.853Z,45.59
2023-05-09T03:06:15.635Z,45.57
2023-05-09T03:07:15.716Z,45.57
2023-05-09T03:08:15.649Z,45.61
2023-05-09T03:09:15.611Z,45.58
2023-05-09T03:10:15.621Z,45.58
2023-05-09T03:11:15.741Z,45.58
2023-05-09T03:12:15.592Z,45.55
2023-05-09T03:13:15.654Z,45.54
2023-05-09T03:14:15.647Z,45.54
2023-05-09T03:15:15.676Z,45.55
2023-05-09T03:16:15.616Z,45.56
2023-05-09T03:17:15.552Z,45.53
2023-05-09T03:18:15.566Z,45.56
2023-05-09T03:19:15.552Z,45.56
2023-05-09T03:20:15.526Z,45.56
2023-05-09T03:21:15.532Z,45.56
2023-05-09T03:22:15.520Z,45.57
2023-05-09T03:23:15.521Z,45.54
2023-05-09T03:24:15.992Z,45.53
2023-05-09T03:25:15.748Z,45.56
2023-05-09T03:26:15.498Z,45.55
2023-05-09T03:27:15.607Z,45.52
2023-05-09T03:28:15.534Z,45.55
2023-05-09T03:29:15.505Z,45.56
2023-05-09T03:30:15.531Z,45.57
2023-05-09T03:31:15.570Z,45.54
2023-05-09T03:32:15.533Z,45.55
2023-05-09T03:33:15.553Z,45.52
2023-05-09T03:34:15.600Z,45.54
2023-05-09T03:35:15.715Z,45.55
2023-05-09T03:36:15.550Z,45.53
2023-05-09T03:37:15.575Z,45.54
2023-05-09T03:38:15.584Z,45.54
2023-05-09T03:39:15.615Z,45.52
2023-05-09T03:40:15.606Z,45.54
2023-05-09T03:41:15.593Z,45.56
2023-05-09T03:42:15.611Z,45.55
2023-05-09T03:43:15.701Z,45.52
2023-05-09T03:44:15.628Z,45.54
2023-05-09T03:45:15.835Z,45.54
2023-05-09T03:46:15.729Z,45.55
2023-05-09T03:47:15.801Z,45.51
2023-05-09T03:48:15.666Z,45.54
2023-05-09T03:49:15.698Z,45.52
2023-05-09T03:50:15.706Z,45.53
2023-05-09T03:51:15.732Z,45.53
2023-05-09T03:52:15.916Z,45.52
2023-05-09T03:53:15.715Z,45.50
2023-05-09T03:54:15.731Z,45.50
2023-05-09T03:55:16.033Z,45.49
2023-05-09T03:56:15.749Z,45.51
2023-05-09T03:57:15.971Z,45.50
2023-05-09T03:58:15.751Z,45.50
2023-05-09T03:59:15.819Z,45.50
2023-05-09T04:00:15.807Z,45.51
2023-05-09T04:01:15.797Z,45.51
2023-05-09T04:02:15.857Z,45.50
2023-05-09T04:03:16.033Z,45.48
2023-05-09T04:04:15.806Z,45.50
2023-05-09T04:05:16.212Z,45.49
2023-05-09T04:06:15.849Z,45.49
2023-05-09T04:07:15.870Z,45.49
2023-05-09T04:08:15.892Z,45.47
2023-05-09T04:09:15.865Z,45.48
2023-05-09T04:10:15.892Z,45.48
2023-05-09T04:11:15.880Z,45.46
2023-05-09T04:12:15.907Z,45.48
2023-05-09T04:13:15.913Z,45.46
2023-05-09T04:14:15.890Z,45.49
2023-05-09T04:15:16.243Z,45.48
2023-05-09T04:16:15.995Z,45.49
2023-05-09T04:17:15.996Z,45.47
2023-05-09T04:18:15.952Z,45.45
2023-05-09T04:19:16.468Z,45.47
2023-05-09T04:20:15.956Z,45.48
2023-05-09T04:21:15.966Z,45.49
2023-05-09T04:22:16.036Z,45.47
2023-05-09T04:23:16.009Z,45.45
2023-05-09T04:24:16.032Z,45.47
2023-05-09T04:25:16.311Z,45.47
2023-05-09T04:26:16.052Z,45.48
2023-05-09T04:27:16.068Z,45.50
2023-05-09T04:28:16.055Z,45.45
2023-05-09T04:29:16.063Z,45.47
2023-05-09T04:30:16.078Z,45.47
2023-05-09T04:31:16.324Z,45.47
2023-05-09T04:32:16.115Z,45.46
2023-05-09T04:33:16.106Z,45.46
2023-05-09T04:34:16.132Z,45.47
2023-05-09T04:35:18.047Z,45.49
2023-05-09T04:36:16.109Z,45.48
2023-05-09T04:37:16.136Z,45.47
2023-05-09T04:38:16.153Z,45.46
2023-05-09T04:39:16.124Z,45.43
2023-05-09T04:40:16.091Z,45.44
2023-05-09T04:41:16.106Z,45.46
2023-05-09T04:42:16.057Z,45.48
2023-05-09T04:43:16.073Z,45.45
2023-05-09T04:44:16.045Z,45.45
2023-05-09T04:45:16.302Z,45.47
2023-05-09T04:46:16.062Z,45.41
2023-05-09T04:47:16.103Z,45.43
2023-05-09T04:48:16.034Z,45.39
2023-05-09T04:49:16.043Z,45.41
2023-05-09T04:50:16.072Z,45.40
2023-05-09T04:51:16.039Z,45.43
2023-05-09T04:52:16.036Z,45.43
2023-05-09T04:53:15.988Z,45.43
2023-05-09T04:54:15.983Z,45.41
2023-05-09T04:55:16.225Z,45.41
2023-05-09T04:56:15.998Z,45.42
2023-05-09T04:57:18.414Z,45.40
2023-05-09T04:58:15.937Z,45.41
2023-05-09T04:59:15.952Z,45.40
2023-05-09T05:00:15.960Z,45.42
2023-05-09T05:01:15.948Z,45.41
2023-05-09T05:02:15.920Z,45.38
2023-05-09T05:03:15.986Z,45.40
2023-05-09T05:04:15.911Z,45.39
2023-05-09T05:05:15.881Z,45.41
2023-05-09T05:06:15.905Z,45.38
2023-05-09T05:07:15.864Z,45.39
2023-05-09T05:08:15.882Z,45.40
2023-05-09T05:09:15.903Z,45.36
2023-05-09T05:10:15.882Z,45.38
2023-05-09T05:11:15.836Z,45.36
2023-05-09T05:12:15.834Z,45.38
2023-05-09T05:13:15.903Z,45.37
2023-05-09T05:14:15.853Z,45.34
2023-05-09T05:15:16.191Z,45.37
2023-05-09T05:16:15.887Z,45.36
2023-05-09T05:17:15.797Z,45.36
2023-05-09T05:18:15.816Z,45.39
2023-05-09T05:19:15.862Z,45.36
2023-05-09T05:20:15.816Z,45.36
2023-05-09T05:21:15.802Z,45.33
2023-05-09T05:22:15.753Z,45.37
2023-05-09T05:23:15.809Z,45.35
2023-05-09T05:24:15.819Z,45.36
2023-05-09T05:25:15.900Z,45.37
2023-05-09T05:26:15.758Z,45.35
2023-05-09T05:27:15.725Z,45.34
2023-05-09T05:28:15.746Z,45.34
2023-05-09T05:29:15.733Z,45.33
2023-05-09T05:30:15.779Z,45.43
2023-05-09T05:31:15.739Z,45.07
2023-05-09T05:32:15.678Z,44.93
2023-05-09T05:33:15.775Z,45.13
2023-05-09T05:34:15.707Z,45.36
2023-05-09T05:35:16.059Z,45.81
2023-05-09T05:36:15.673Z,46.44
2023-05-09T05:37:15.666Z,46.78
2023-05-09T05:38:15.640Z,47.11
2023-05-09T05:39:15.642Z,47.47
2023-05-09T05:40:15.683Z,47.22
2023-05-09T05:41:15.641Z,47.53
2023-05-09T05:42:15.608Z,48.21
2023-05-09T05:43:15.598Z,48.48
2023-05-09T05:44:15.608Z,48.24
2023-05-09T05:45:15.907Z,48.43
2023-05-09T05:46:15.604Z,48.48
2023-05-09T05:47:15.563Z,48.37
2023-05-09T05:48:15.556Z,48.33
2023-05-09T05:49:15.569Z,48.44
2023-05-09T05:50:15.549Z,48.46
2023-05-09T05:51:15.736Z,48.53
2023-05-09T05:52:15.556Z,48.61
2023-05-09T05:53:15.548Z,48.54
2023-05-09T05:54:15.555Z,48.75
2023-05-09T05:55:15.697Z,48.93
2023-05-09T05:56:15.537Z,48.97
2023-05-09T05:57:15.531Z,48.97
2023-05-09T05:58:15.479Z,49.02
2023-05-09T05:59:15.482Z,49.03
2023-05-09T06:00:15.489Z,49.06
2023-05-09T06:01:15.483Z,49.13
2023-05-09T06:02:15.585Z,49.25
2023-05-09T06:03:15.596Z,49.30
2023-05-09T06:04:15.634Z,49.25
2023-05-09T06:05:15.564Z,49.26
2023-05-09T06:06:15.453Z,49.29
2023-05-09T06:07:15.502Z,49.24
2023-05-09T06:08:15.414Z,49.28
2023-05-09T06:09:15.421Z,49.30
2023-05-09T06:10:15.405Z,49.28
2023-05-09T06:11:15.410Z,49.41
2023-05-09T06:12:15.367Z,49.34
2023-05-09T06:13:15.436Z,49.39
2023-05-09T06:14:15.464Z,49.46
2023-05-09T06:15:15.732Z,49.48
2023-05-09T06:16:20.127Z,49.45
2023-05-09T06:17:16.803Z,49.49
2023-05-09T06:18:15.557Z,49.48
2023-05-09T06:19:15.554Z,49.47
2023-05-09T06:20:15.550Z,49.61
2023-05-09T06:21:15.554Z,49.46
2023-05-09T06:22:15.517Z,49.50
2023-05-09T06:23:15.626Z,49.41
2023-05-09T06:24:23.882Z,49.36
2023-05-09T06:25:16.824Z,49.33
2023-05-09T06:26:15.485Z,49.47
2023-05-09T06:27:15.487Z,49.53
2023-05-09T06:28:15.469Z,49.47
2023-05-09T06:29:15.469Z,49.45
2023-05-09T06:30:25.518Z,49.44
2023-05-09T06:31:16.556Z,49.50
2023-05-09T06:32:15.455Z,49.56
2023-05-09T06:33:15.459Z,49.56
2023-05-09T06:34:15.430Z,49.64
2023-05-09T06:35:15.631Z,49.75
2023-05-09T06:36:15.481Z,49.86
2023-05-09T06:37:15.406Z,49.64
2023-05-09T06:38:15.553Z,49.36
2023-05-09T06:39:15.662Z,48.97
2023-05-09T06:40:15.409Z,47.79
2023-05-09T06:41:15.523Z,48.13
2023-05-09T06:42:15.389Z,48.42
2023-05-09T06:43:15.397Z,48.68
2023-05-09T06:44:15.580Z,48.76
2023-05-09T06:45:15.736Z,48.98
2023-05-09T06:46:15.452Z,48.82
2023-05-09T06:47:15.478Z,49.05
2023-05-09T06:48:15.536Z,49.14
2023-05-09T06:49:15.686Z,49.12
2023-05-09T06:50:15.544Z,49.12
2023-05-09T06:51:15.598Z,48.95
2023-05-09T06:52:15.606Z,48.94
2023-05-09T06:53:15.639Z,49.20
2023-05-09T06:54:15.698Z,49.01
2023-05-09T06:55:16.019Z,48.99
2023-05-09T06:56:16.312Z,49.02
2023-05-09T06:57:15.716Z,49.05
2023-05-09T06:58:15.771Z,48.98
2023-05-09T06:59:15.778Z,48.84
2023-05-09T07:00:15.766Z,48.87
2023-05-09T07:01:15.791Z,48.96
2023-05-09T07:02:15.804Z,48.94
2023-05-09T07:03:16.068Z,48.94
2023-05-09T07:04:16.045Z,48.86
2023-05-09T07:05:16.114Z,48.82
2023-05-09T07:06:15.840Z,48.80
2023-05-09T07:07:15.890Z,48.76
2023-05-09T07:08:15.883Z,49.01
2023-05-09T07:09:15.917Z,48.80
2023-05-09T07:10:15.939Z,48.99
2023-05-09T07:11:16.111Z,48.79
2023-05-09T07:12:15.991Z,48.86
2023-05-09T07:13:16.266Z,48.85
2023-05-09T07:14:16.017Z,48.82
2023-05-09T07:15:25.694Z,48.87
2023-05-09T07:16:17.071Z,48.93
2023-05-09T07:17:23.404Z,48.97
2023-05-09T07:18:17.011Z,48.88
2023-05-09T07:19:16.016Z,49.02
2023-05-09T07:20:16.016Z,48.96
2023-05-09T07:21:16.107Z,48.91
2023-05-09T07:22:16.188Z,48.87
2023-05-09T07:23:15.983Z,48.86
2023-05-09T07:24:15.951Z,48.80
2023-05-09T07:25:16.174Z,48.78
2023-05-09T07:26:15.952Z,48.62
2023-05-09T07:27:16.028Z,48.76
2023-05-09T07:28:15.927Z,48.79
2023-05-09T07:29:15.938Z,48.80
2023-05-09T07:30:16.034Z,48.73
2023-05-09T07:31:15.966Z,48.97
2023-05-09T07:32:16.031Z,49.03
2023-05-09T07:33:16.579Z,48.60
2023-05-09T07:34:16.101Z,48.84
2023-05-09T07:35:16.223Z,48.94
2023-05-09T07:36:15.914Z,48.13
2023-05-09T07:37:16.512Z,48.17
2023-05-09T07:38:16.084Z,48.08
2023-05-09T07:39:16.088Z,46.99
2023-05-09T07:40:16.221Z,46.28
2023-05-09T07:41:15.909Z,46.06
2023-05-09T07:42:15.819Z,46.75
2023-05-09T07:43:15.947Z,47.38
2023-05-09T07:44:15.985Z,47.47
2023-05-09T07:45:16.115Z,47.49
2023-05-09T07:46:15.958Z,47.51
2023-05-09T07:47:15.813Z,47.61
2023-05-09T07:48:15.853Z,47.60
2023-05-09T07:49:15.866Z,47.65
2023-05-09T07:50:15.863Z,47.60
2023-05-09T07:51:15.879Z,47.59
2023-05-09T07:52:15.879Z,47.53
2023-05-09T07:53:15.879Z,47.52
2023-05-09T07:54:15.906Z,47.43
2023-05-09T07:55:16.156Z,47.44
2023-05-09T07:56:15.832Z,47.40
2023-05-09T07:57:15.900Z,47.57
2023-05-09T07:58:15.878Z,47.58
2023-05-09T07:59:15.885Z,47.61
2023-05-09T08:00:15.908Z,47.55
2023-05-09T08:01:16.033Z,47.51
2023-05-09T08:02:16.064Z,47.47
2023-05-09T08:03:16.250Z,47.53
2023-05-09T08:04:16.077Z,47.52
2023-05-09T08:05:16.445Z,47.52
2023-05-09T08:06:16.172Z,47.50
2023-05-09T08:07:16.218Z,47.51
2023-05-09T08:08:16.257Z,47.53
2023-05-09T08:09:16.348Z,47.52
2023-05-09T08:10:16.347Z,46.99
2023-05-09T08:11:16.432Z,46.87
2023-05-09T08:12:16.532Z,47.17
2023-05-09T08:13:16.583Z,47.13
2023-05-09T08:14:16.644Z,47.15
2023-05-09T08:15:17.260Z,47.16
2023-05-09T08:16:16.776Z,47.19
2023-05-09T08:17:16.798Z,47.13
2023-05-09T08:18:16.852Z,47.04
2023-05-09T08:19:16.871Z,47.01
2023-05-09T08:20:16.959Z,46.65
2023-05-09T08:21:16.988Z,46.52
2023-05-09T08:22:17.059Z,46.59
2023-05-09T08:23:17.116Z,46.69
2023-05-09T08:24:17.177Z,46.88
2023-05-09T08:25:17.428Z,46.84
2023-05-09T08:26:17.228Z,46.84
2023-05-09T08:27:17.241Z,46.76
2023-05-09T08:28:18.085Z,46.75
2023-05-09T08:29:18.153Z,46.71
2023-05-09T08:30:19.177Z,46.70
2023-05-09T08:31:17.427Z,46.70
2023-05-09T08:32:17.371Z,46.75
2023-05-09T08:33:17.470Z,46.77
2023-05-09T08:34:17.478Z,46.76
2023-05-09T08:35:17.712Z,46.83
2023-05-09T08:36:17.519Z,46.85
2023-05-09T08:37:17.566Z,46.81
2023-05-09T08:38:17.627Z,46.85
2023-05-09T08:39:18.719Z,46.91
2023-05-09T08:40:17.824Z,46.50
2023-05-09T08:41:17.737Z,46.70
2023-05-09T08:42:18.695Z,47.01
2023-05-09T08:43:17.840Z,47.29
2023-05-09T08:44:17.745Z,47.27
2023-05-09T08:45:17.771Z,47.44
2023-05-09T08:46:17.931Z,47.61
2023-05-09T08:47:17.859Z,47.58
2023-05-09T08:48:17.945Z,47.59
2023-05-09T08:49:17.897Z,47.72
2023-05-09T08:50:18.387Z,48.08
2023-05-09T08:51:18.021Z,48.43
2023-05-09T08:52:18.064Z,48.38
2023-05-09T08:53:18.116Z,48.51
2023-05-09T08:54:19.596Z,48.62
2023-05-09T08:55:18.212Z,48.94
2023-05-09T08:56:18.404Z,49.05
2023-05-09T08:57:18.408Z,48.88
2023-05-09T08:58:18.383Z,49.47
2023-05-09T08:59:18.629Z,49.11
2023-05-09T09:00:20.472Z,49.09
2023-05-09T09:01:18.546Z,49.04
2023-05-09T09:02:18.654Z,48.95
2023-05-09T09:03:18.647Z,48.93
2023-05-09T09:04:18.766Z,48.92
2023-05-09T09:05:39.295Z,48.92
2023-05-09T09:06:19.720Z,49.13
2023-05-09T09:07:18.724Z,49.40
2023-05-09T09:08:18.700Z,49.35
2023-05-09T09:09:18.681Z,49.32
2023-05-09T09:10:18.660Z,49.14
2023-05-09T09:11:18.830Z,48.91
2023-05-09T09:12:18.642Z,48.96
2023-05-09T09:13:18.754Z,49.01
2023-05-09T09:14:19.117Z,48.96
2023-05-09T09:15:18.716Z,48.67
2023-05-09T09:16:18.845Z,48.63
2023-05-09T09:17:18.835Z,48.25
2023-05-09T09:18:19.054Z,48.20
2023-05-09T09:19:18.972Z,48.43
2023-05-09T09:20:18.953Z,48.51
2023-05-09T09:21:19.012Z,48.42
2023-05-09T09:22:19.077Z,48.08
2023-05-09T09:23:20.112Z,48.30
2023-05-09T09:24:19.236Z,48.26
2023-05-09T09:25:19.270Z,48.18
2023-05-09T09:26:19.372Z,48.22
2023-05-09T09:27:19.376Z,48.28
2023-05-09T09:28:19.511Z,48.16
2023-05-09T09:29:19.508Z,47.59
2023-05-09T09:30:19.546Z,46.85
2023-05-09T09:31:19.607Z,46.85
2023-05-09T09:32:19.706Z,46.76
2023-05-09T09:33:19.719Z,47.28
2023-05-09T09:34:20.181Z,47.28
2023-05-09T09:35:19.830Z,47.02
2023-05-09T09:36:19.872Z,47.03
2023-05-09T09:37:19.914Z,46.81
2023-05-09T09:38:20.031Z,46.78
2023-05-09T09:39:20.261Z,46.88
2023-05-09T09:40:20.130Z,46.83
2023-05-09T09:41:20.142Z,47.01
2023-05-09T09:42:20.184Z,46.91
2023-05-09T09:43:20.233Z,46.94
2023-05-09T09:44:20.309Z,46.80
2023-05-09T09:45:20.417Z,46.82
2023-05-09T09:46:20.419Z,46.82
2023-05-09T09:47:20.480Z,46.58
2023-05-09T09:48:20.591Z,46.56
2023-05-09T09:49:20.582Z,46.66
2023-05-09T09:50:20.688Z,46.76
2023-05-09T09:51:20.690Z,46.84
2023-05-09T09:52:20.720Z,46.90
2023-05-09T09:53:20.847Z,46.96
2023-05-09T09:54:20.894Z,47.08
2023-05-09T09:55:20.865Z,47.28
2023-05-09T09:56:20.950Z,47.29
2023-05-09T09:57:21.001Z,47.32
2023-05-09T09:58:21.077Z,47.31
2023-05-09T09:59:21.151Z,47.39
2023-05-09T10:00:21.188Z,47.42
2023-05-09T10:01:21.276Z,47.35
2023-05-09T10:02:21.351Z,47.35
2023-05-09T10:03:21.413Z,47.41
2023-05-09T10:04:21.375Z,47.49
2023-05-09T10:05:21.456Z,47.45
2023-05-09T10:06:21.551Z,47.50
2023-05-09T10:07:21.644Z,47.47
2023-05-09T10:08:21.609Z,47.52
2023-05-09T10:09:21.749Z,47.69
2023-05-09T10:10:21.791Z,47.79
2023-05-09T10:11:21.855Z,47.83
2023-05-09T10:12:21.845Z,47.93
2023-05-09T10:13:21.987Z,48.01
2023-05-09T10:14:21.992Z,48.06
2023-05-09T10:15:22.060Z,48.07
2023-05-09T10:16:35.601Z,48.14
2023-05-09T10:17:23.322Z,48.23
2023-05-09T10:18:22.223Z,48.16
2023-05-09T10:19:22.135Z,48.11
2023-05-09T10:20:22.082Z,48.14
2023-05-09T10:21:22.075Z,48.22
2023-05-09T10:22:22.126Z,48.28
2023-05-09T10:23:22.059Z,48.33
2023-05-09T10:24:22.062Z,48.37
2023-05-09T10:25:22.095Z,48.82
2023-05-09T10:26:22.032Z,48.85
2023-05-09T10:27:22.059Z,47.67
2023-05-09T10:28:22.094Z,45.70
2023-05-09T10:29:22.211Z,45.72
2023-05-09T10:30:22.207Z,45.71
2023-05-09T10:31:22.281Z,45.89
2023-05-09T10:32:22.314Z,46.11
2023-05-09T10:33:22.379Z,46.23
2023-05-09T10:34:22.651Z,46.31
2023-05-09T10:35:22.645Z,46.56
2023-05-09T10:36:22.527Z,46.68
2023-05-09T10:37:22.566Z,46.74
2023-05-09T10:38:22.658Z,46.80
2023-05-09T10:39:22.634Z,46.96
2023-05-09T10:40:22.723Z,46.98
2023-05-09T10:41:22.867Z,47.08
2023-05-09T10:42:22.816Z,47.06
2023-05-09T10:43:22.880Z,47.20
2023-05-09T10:44:22.967Z,47.24
2023-05-09T10:45:22.980Z,47.26
2023-05-09T10:46:23.071Z,47.36
2023-05-09T10:47:23.102Z,47.44
2023-05-09T10:48:23.121Z,47.53
2023-05-09T10:49:23.188Z,47.56
2023-05-09T10:50:23.227Z,47.74
2023-05-09T10:51:23.309Z,47.76
2023-05-09T10:52:23.269Z,47.77
2023-05-09T10:53:23.302Z,47.76
2023-05-09T10:54:23.457Z,47.89
2023-05-09T10:55:23.406Z,47.90
2023-05-09T10:56:23.432Z,48.53
2023-05-09T10:57:23.482Z,48.56
2023-05-09T10:58:23.491Z,48.93
2023-05-09T10:59:23.583Z,48.95
2023-05-09T11:00:23.610Z,48.57
2023-05-09T11:01:23.742Z,48.77
2023-05-09T11:02:23.705Z,49.06
2023-05-09T11:03:23.813Z,48.80
2023-05-09T11:04:23.791Z,48.80
2023-05-09T11:05:23.836Z,48.68
2023-05-09T11:06:23.977Z,48.63
2023-05-09T11:07:23.943Z,48.61
2023-05-09T11:08:23.966Z,48.53
2023-05-09T11:09:24.014Z,48.56
2023-05-09T11:10:24.148Z,48.56
2023-05-09T11:11:24.209Z,48.53
2023-05-09T11:12:24.168Z,48.65
2023-05-09T11:13:24.238Z,48.57
2023-05-09T11:14:24.260Z,48.55
2023-05-09T11:15:24.284Z,48.50
2023-05-09T11:16:24.320Z,48.47
2023-05-09T11:17:24.329Z,48.81
2023-05-09T11:18:24.324Z,48.93
2023-05-09T11:19:24.394Z,46.29
2023-05-09T11:20:24.445Z,44.68
2023-05-09T11:21:24.448Z,44.60
2023-05-09T11:22:24.511Z,45.70
2023-05-09T11:23:25.170Z,46.05
2023-05-09T11:24:24.713Z,45.75
2023-05-09T11:25:24.558Z,45.52
2023-05-09T11:26:24.712Z,45.15
2023-05-09T11:27:24.628Z,45.12
2023-05-09T11:28:24.667Z,45.18
2023-05-09T11:29:24.727Z,45.16
2023-05-09T11:30:24.758Z,45.21
2023-05-09T11:31:24.913Z,45.37
2023-05-09T11:32:24.888Z,45.46
2023-05-09T11:33:24.908Z,45.47
2023-05-09T11:34:25.667Z,45.52
2023-05-09T11:35:25.086Z,45.54
2023-05-09T11:36:25.083Z,45.61
2023-05-09T11:37:25.137Z,45.59
2023-05-09T11:38:25.203Z,45.59
2023-05-09T11:39:25.398Z,45.58
2023-05-09T11:40:25.332Z,45.64
2023-05-09T11:41:25.394Z,45.55
2023-05-09T11:42:25.542Z,45.54
2023-05-09T11:43:25.545Z,45.48
2023-05-09T11:44:25.603Z,45.45
2023-05-09T11:45:25.651Z,45.48
2023-05-09T11:46:25.743Z,45.46
2023-05-09T11:47:25.785Z,45.45
2023-05-09T11:48:25.826Z,45.42
2023-05-09T11:49:25.918Z,45.38
2023-05-09T11:50:25.944Z,45.32
2023-05-09T11:51:25.966Z,45.33
2023-05-09T11:52:26.033Z,45.29
2023-05-09T11:53:26.071Z,45.30
2023-05-09T11:54:26.117Z,45.33
2023-05-09T11:55:26.152Z,45.27
2023-05-09T11:56:26.194Z,45.25
2023-05-09T11:57:26.269Z,45.22
2023-05-09T11:58:26.370Z,45.22
2023-05-09T11:59:26.344Z,45.26
2023-05-09T12:00:26.418Z,45.22
2023-05-09T12:01:26.443Z,45.14
2023-05-09T12:02:26.579Z,45.13
2023-05-09T12:03:26.907Z,45.10
2023-05-09T12:04:26.621Z,44.98
2023-05-09T12:05:26.651Z,44.98
2023-05-09T12:06:26.697Z,44.95
2023-05-09T12:07:26.764Z,44.82
2023-05-09T12:08:26.804Z,44.82
2023-05-09T12:09:26.850Z,44.91
2023-05-09T12:10:27.008Z,44.83
2023-05-09T12:11:26.991Z,44.82
2023-05-09T12:12:27.031Z,44.78
2023-05-09T12:13:27.332Z,44.72
2023-05-09T12:14:27.348Z,44.67
2023-05-09T12:15:28.260Z,44.42
2023-05-09T12:16:27.317Z,43.53
2023-05-09T12:17:27.322Z,41.92
2023-05-09T12:18:27.419Z,40.99
2023-05-09T12:19:27.489Z,41.56
2023-05-09T12:20:27.703Z,41.31
2023-05-09T12:21:27.427Z,41.20
2023-05-09T12:22:27.628Z,41.80
2023-05-09T12:23:27.606Z,41.87
2023-05-09T12:24:27.594Z,42.19
2023-05-09T12:25:27.663Z,42.02
2023-05-09T12:26:27.716Z,41.99
2023-05-09T12:27:27.815Z,41.94
2023-05-09T12:28:27.806Z,42.06
2023-05-09T12:29:27.859Z,41.82
2023-05-09T12:30:28.763Z,42.03
2023-05-09T12:31:27.985Z,41.94
2023-05-09T12:32:28.069Z,41.92
2023-05-09T12:33:28.074Z,41.79
2023-05-09T12:34:28.130Z,41.68
2023-05-09T12:35:28.289Z,41.55
2023-05-09T12:36:28.270Z,41.27
2023-05-09T12:37:28.332Z,41.25
2023-05-09T12:38:28.410Z,41.01
2023-05-09T12:39:28.474Z,41.27
2023-05-09T12:40:28.533Z,41.08
2023-05-09T12:41:37.105Z,40.87
2023-05-09T12:42:29.562Z,40.88
2023-05-09T12:43:28.556Z,40.56
2023-05-09T12:44:28.564Z,40.61
2023-05-09T12:45:28.535Z,40.51
2023-05-09T12:46:28.660Z,40.41
2023-05-09T12:47:28.576Z,40.41
2023-05-09T12:48:28.564Z,40.23
2023-05-09T12:49:28.525Z,40.13
2023-05-09T12:50:28.504Z,39.92
2023-05-09T12:51:28.545Z,40.00
2023-05-09T12:52:28.551Z,39.46